sensor_id;sensor_type;location;lat;lon;timestamp;P1;durP1;ratioP1;P2;durP2;ratioP2
1603;SDS011;795;49.296;11.348;2023-02-28T00:01:27;3.92;;;3.53;;
1603;SDS011;795;49.296;11.348;2023-02-28T00:03:55;5.13;;;4.65;;
1603;SDS011;795;49.296;11.348;2023-02-28T00:06:23;4.90;;;3.55;;
1603;SDS011;795;49.296;11.348;2023-02-28T00:08:52;3.67;;;3.33;;
1603;SDS011;795;49.296;11.348;2023-02-28T00:11:19;5.93;;;3.55;;
1603;SDS011;795;49.296;11.348;2023-02-28T00:13:46;7.13;;;4.57;;
1603;SDS011;795;49.296;11.348;2023-02-28T00:16:15;10.10;;;4.55;;
1603;SDS011;795;49.296;11.348;2023-02-28T00:18:48;5.30;;;4.45;;
1603;SDS011;795;49.296;11.348;2023-02-28T00:21:16;4.18;;;3.58;;
1603;SDS011;795;49.296;11.348;2023-02-28T00:23:46;4.75;;;4.18;;
1603;SDS011;795;49.296;11.348;2023-02-28T00:26:13;5.38;;;3.42;;
1603;SDS011;795;49.296;11.348;2023-02-28T00:28:40;4.75;;;3.65;;
1603;SDS011;795;49.296;11.348;2023-02-28T00:31:07;6.07;;;4.10;;
1603;SDS011;795;49.296;11.348;2023-02-28T00:33:34;4.25;;;3.60;;
1603;SDS011;795;49.296;11.348;2023-02-28T00:36:05;5.20;;;4.63;;
1603;SDS011;795;49.296;11.348;2023-02-28T00:38:37;9.30;;;5.32;;
1603;SDS011;795;49.296;11.348;2023-02-28T00:41:06;7.40;;;3.75;;
1603;SDS011;795;49.296;11.348;2023-02-28T00:43:35;5.43;;;4.93;;
1603;SDS011;795;49.296;11.348;2023-02-28T00:46:06;7.53;;;4.53;;
1603;SDS011;795;49.296;11.348;2023-02-28T00:48:34;5.75;;;3.63;;
1603;SDS011;795;49.296;11.348;2023-02-28T00:51:01;7.97;;;5.07;;
1603;SDS011;795;49.296;11.348;2023-02-28T00:53:29;3.75;;;3.42;;
1603;SDS011;795;49.296;11.348;2023-02-28T00:55:56;7.35;;;3.92;;
1603;SDS011;795;49.296;11.348;2023-02-28T00:58:23;6.97;;;4.93;;
1603;SDS011;795;49.296;11.348;2023-02-28T01:00:51;4.40;;;4.00;;
1603;SDS011;795;49.296;11.348;2023-02-28T01:03:20;4.82;;;4.32;;
1603;SDS011;795;49.296;11.348;2023-02-28T01:05:48;4.55;;;4.13;;
1603;SDS011;795;49.296;11.348;2023-02-28T01:08:16;5.05;;;4.25;;
1603;SDS011;795;49.296;11.348;2023-02-28T01:10:43;3.97;;;3.67;;
1603;SDS011;795;49.296;11.348;2023-02-28T01:13:11;8.07;;;4.00;;
1603;SDS011;795;49.296;11.348;2023-02-28T01:15:40;4.45;;;4.10;;
1603;SDS011;795;49.296;11.348;2023-02-28T01:18:16;9.43;;;4.30;;
1603;SDS011;795;49.296;11.348;2023-02-28T01:20:44;4.25;;;3.85;;
1603;SDS011;795;49.296;11.348;2023-02-28T01:23:12;5.05;;;4.07;;
1603;SDS011;795;49.296;11.348;2023-02-28T01:25:39;5.15;;;4.65;;
1603;SDS011;795;49.296;11.348;2023-02-28T01:28:06;6.20;;;4.05;;
1603;SDS011;795;49.296;11.348;2023-02-28T01:30:33;5.03;;;4.47;;
1603;SDS011;795;49.296;11.348;2023-02-28T01:33:00;5.88;;;4.55;;
1603;SDS011;795;49.296;11.348;2023-02-28T01:35:28;4.95;;;4.45;;
1603;SDS011;795;49.296;11.348;2023-02-28T01:37:54;7.45;;;5.60;;
1603;SDS011;795;49.296;11.348;2023-02-28T01:40:29;4.95;;;3.95;;
1603;SDS011;795;49.296;11.348;2023-02-28T01:42:56;6.70;;;4.63;;
1603;SDS011;795;49.296;11.348;2023-02-28T01:48:02;5.90;;;5.20;;
1603;SDS011;795;49.296;11.348;2023-02-28T01:50:36;7.75;;;4.22;;
1603;SDS011;795;49.296;11.348;2023-02-28T01:53:12;7.13;;;5.10;;
1603;SDS011;795;49.296;11.348;2023-02-28T01:55:48;4.60;;;4.20;;
1603;SDS011;795;49.296;11.348;2023-02-28T01:58:20;7.80;;;3.80;;
1603;SDS011;795;49.296;11.348;2023-02-28T02:00:47;5.97;;;5.20;;
1603;SDS011;795;49.296;11.348;2023-02-28T02:03:16;7.47;;;4.80;;
1603;SDS011;795;49.296;11.348;2023-02-28T02:05:46;7.75;;;4.90;;
1603;SDS011;795;49.296;11.348;2023-02-28T02:08:18;5.75;;;4.68;;
1603;SDS011;795;49.296;11.348;2023-02-28T02:10:53;7.45;;;3.75;;
1603;SDS011;795;49.296;11.348;2023-02-28T02:20:06;6.00;;;4.65;;
1603;SDS011;795;49.296;11.348;2023-02-28T02:38:35;3.67;;;3.38;;
1603;SDS011;795;49.296;11.348;2023-02-28T02:41:22;6.60;;;4.25;;
1603;SDS011;795;49.296;11.348;2023-02-28T02:44:11;6.07;;;4.53;;
1603;SDS011;795;49.296;11.348;2023-02-28T02:47:07;5.85;;;4.10;;
1603;SDS011;795;49.296;11.348;2023-02-28T02:49:46;6.43;;;4.78;;
1603;SDS011;795;49.296;11.348;2023-02-28T02:52:23;5.50;;;3.42;;
1603;SDS011;795;49.296;11.348;2023-02-28T02:55:04;4.20;;;3.80;;
1603;SDS011;795;49.296;11.348;2023-02-28T02:57:45;7.75;;;5.05;;
1603;SDS011;795;49.296;11.348;2023-02-28T03:00:31;5.47;;;4.15;;
1603;SDS011;795;49.296;11.348;2023-02-28T03:03:08;5.85;;;4.03;;
1603;SDS011;795;49.296;11.348;2023-02-28T03:05:42;16.17;;;4.65;;
1603;SDS011;795;49.296;11.348;2023-02-28T03:08:15;5.63;;;4.53;;
1603;SDS011;795;49.296;11.348;2023-02-28T03:10:44;6.90;;;4.88;;
1603;SDS011;795;49.296;11.348;2023-02-28T03:13:21;4.93;;;4.22;;
1603;SDS011;795;49.296;11.348;2023-02-28T03:20:05;8.23;;;4.95;;
1603;SDS011;795;49.296;11.348;2023-02-28T03:23:00;5.00;;;4.05;;
1603;SDS011;795;49.296;11.348;2023-02-28T03:34:11;7.13;;;5.40;;
1603;SDS011;795;49.296;11.348;2023-02-28T03:36:51;4.60;;;4.00;;
1603;SDS011;795;49.296;11.348;2023-02-28T03:39:33;7.72;;;5.70;;
1603;SDS011;795;49.296;11.348;2023-02-28T03:42:19;4.50;;;4.10;;
1603;SDS011;795;49.296;11.348;2023-02-28T03:44:57;9.35;;;5.55;;
1603;SDS011;795;49.296;11.348;2023-02-28T03:50:24;11.48;;;6.53;;
1603;SDS011;795;49.296;11.348;2023-02-28T03:53:11;6.82;;;4.80;;
1603;SDS011;795;49.296;11.348;2023-02-28T03:55:53;6.35;;;4.78;;
1603;SDS011;795;49.296;11.348;2023-02-28T03:58:51;5.85;;;4.00;;
1603;SDS011;795;49.296;11.348;2023-02-28T04:01:38;6.35;;;4.68;;
1603;SDS011;795;49.296;11.348;2023-02-28T04:04:10;9.18;;;5.28;;
1603;SDS011;795;49.296;11.348;2023-02-28T04:06:40;8.00;;;6.10;;
1603;SDS011;795;49.296;11.348;2023-02-28T04:09:10;6.47;;;4.13;;
1603;SDS011;795;49.296;11.348;2023-02-28T04:11:50;5.63;;;4.88;;
1603;SDS011;795;49.296;11.348;2023-02-28T04:14:19;5.82;;;4.70;;
1603;SDS011;795;49.296;11.348;2023-02-28T04:16:46;6.80;;;5.07;;
1603;SDS011;795;49.296;11.348;2023-02-28T04:19:13;9.15;;;5.82;;
1603;SDS011;795;49.296;11.348;2023-02-28T04:21:41;7.78;;;5.43;;
1603;SDS011;795;49.296;11.348;2023-02-28T04:24:13;9.23;;;5.72;;
1603;SDS011;795;49.296;11.348;2023-02-28T04:26:46;8.70;;;5.05;;
1603;SDS011;795;49.296;11.348;2023-02-28T04:29:22;10.48;;;6.70;;
1603;SDS011;795;49.296;11.348;2023-02-28T04:31:56;6.00;;;5.40;;
1603;SDS011;795;49.296;11.348;2023-02-28T04:34:26;11.57;;;5.55;;
1603;SDS011;795;49.296;11.348;2023-02-28T04:36:57;6.70;;;5.70;;
1603;SDS011;795;49.296;11.348;2023-02-28T04:39:39;8.70;;;6.60;;
1603;SDS011;795;49.296;11.348;2023-02-28T04:42:09;6.35;;;5.75;;
1603;SDS011;795;49.296;11.348;2023-02-28T04:44:37;16.67;;;6.13;;
1603;SDS011;795;49.296;11.348;2023-02-28T04:47:04;6.88;;;5.70;;
1603;SDS011;795;49.296;11.348;2023-02-28T04:49:32;7.28;;;5.45;;
1603;SDS011;795;49.296;11.348;2023-02-28T04:51:58;8.27;;;6.13;;
1603;SDS011;795;49.296;11.348;2023-02-28T04:54:25;9.32;;;5.57;;
1603;SDS011;795;49.296;11.348;2023-02-28T04:56:54;8.38;;;6.15;;
1603;SDS011;795;49.296;11.348;2023-02-28T04:59:21;11.30;;;7.00;;
1603;SDS011;795;49.296;11.348;2023-02-28T05:01:48;12.88;;;6.05;;
1603;SDS011;795;49.296;11.348;2023-02-28T05:04:16;6.00;;;5.40;;
1603;SDS011;795;49.296;11.348;2023-02-28T05:06:43;11.57;;;7.00;;
1603;SDS011;795;49.296;11.348;2023-02-28T05:09:10;7.72;;;6.35;;
1603;SDS011;795;49.296;11.348;2023-02-28T05:11:38;8.77;;;5.80;;
1603;SDS011;795;49.296;11.348;2023-02-28T05:14:12;11.25;;;6.45;;
1603;SDS011;795;49.296;11.348;2023-02-28T05:16:40;7.32;;;6.05;;
1603;SDS011;795;49.296;11.348;2023-02-28T05:19:08;12.90;;;6.88;;
1603;SDS011;795;49.296;11.348;2023-02-28T05:21:36;9.20;;;6.90;;
1603;SDS011;795;49.296;11.348;2023-02-28T05:24:14;9.45;;;6.15;;
1603;SDS011;795;49.296;11.348;2023-02-28T05:26:41;8.90;;;6.60;;
1603;SDS011;795;49.296;11.348;2023-02-28T05:29:09;8.13;;;5.95;;
1603;SDS011;795;49.296;11.348;2023-02-28T05:31:37;13.63;;;6.07;;
1603;SDS011;795;49.296;11.348;2023-02-28T05:34:04;14.00;;;7.75;;
1603;SDS011;795;49.296;11.348;2023-02-28T05:36:32;11.57;;;7.60;;
1603;SDS011;795;49.296;11.348;2023-02-28T05:38:59;10.73;;;6.88;;
1603;SDS011;795;49.296;11.348;2023-02-28T05:41:26;7.40;;;5.70;;
1603;SDS011;795;49.296;11.348;2023-02-28T05:43:54;7.78;;;6.15;;
1603;SDS011;795;49.296;11.348;2023-02-28T05:46:21;12.68;;;7.25;;
1603;SDS011;795;49.296;11.348;2023-02-28T05:48:48;9.57;;;7.07;;
1603;SDS011;795;49.296;11.348;2023-02-28T05:51:16;7.90;;;6.25;;
1603;SDS011;795;49.296;11.348;2023-02-28T05:53:44;9.82;;;6.47;;
1603;SDS011;795;49.296;11.348;2023-02-28T05:56:11;7.55;;;6.32;;
1603;SDS011;795;49.296;11.348;2023-02-28T05:58:38;9.65;;;6.30;;
1603;SDS011;795;49.296;11.348;2023-02-28T06:04:08;8.63;;;6.13;;
1603;SDS011;795;49.296;11.348;2023-02-28T06:06:50;16.35;;;7.13;;
1603;SDS011;795;49.296;11.348;2023-02-28T06:09:18;12.20;;;7.03;;
1603;SDS011;795;49.296;11.348;2023-02-28T06:11:45;13.90;;;6.82;;
1603;SDS011;795;49.296;11.348;2023-02-28T06:14:16;20.00;;;7.28;;
1603;SDS011;795;49.296;11.348;2023-02-28T06:16:46;8.77;;;6.53;;
1603;SDS011;795;49.296;11.348;2023-02-28T06:19:13;12.57;;;8.15;;
1603;SDS011;795;49.296;11.348;2023-02-28T06:21:41;11.32;;;6.65;;
1603;SDS011;795;49.296;11.348;2023-02-28T06:24:09;9.32;;;7.25;;
1603;SDS011;795;49.296;11.348;2023-02-28T06:26:36;11.05;;;7.30;;
1603;SDS011;795;49.296;11.348;2023-02-28T06:29:04;13.57;;;7.30;;
1603;SDS011;795;49.296;11.348;2023-02-28T06:31:31;7.78;;;6.97;;
1603;SDS011;795;49.296;11.348;2023-02-28T06:33:58;10.88;;;6.35;;
1603;SDS011;795;49.296;11.348;2023-02-28T06:36:25;14.07;;;7.57;;
1603;SDS011;795;49.296;11.348;2023-02-28T06:38:52;10.65;;;7.60;;
1603;SDS011;795;49.296;11.348;2023-02-28T06:41:23;11.70;;;7.78;;
1603;SDS011;795;49.296;11.348;2023-02-28T06:43:53;17.13;;;8.43;;
1603;SDS011;795;49.296;11.348;2023-02-28T06:46:20;7.32;;;6.22;;
1603;SDS011;795;49.296;11.348;2023-02-28T06:48:48;12.82;;;8.00;;
1603;SDS011;795;49.296;11.348;2023-02-28T06:51:17;11.95;;;7.25;;
1603;SDS011;795;49.296;11.348;2023-02-28T06:53:48;10.10;;;7.65;;
1603;SDS011;795;49.296;11.348;2023-02-28T06:56:15;14.55;;;7.75;;
1603;SDS011;795;49.296;11.348;2023-02-28T06:58:48;8.43;;;7.53;;
1603;SDS011;795;49.296;11.348;2023-02-28T07:01:18;10.73;;;7.22;;
1603;SDS011;795;49.296;11.348;2023-02-28T07:03:46;9.80;;;7.38;;
1603;SDS011;795;49.296;11.348;2023-02-28T07:06:18;10.07;;;7.45;;
1603;SDS011;795;49.296;11.348;2023-02-28T07:08:50;13.60;;;6.97;;
1603;SDS011;795;49.296;11.348;2023-02-28T07:11:20;13.23;;;8.55;;
1603;SDS011;795;49.296;11.348;2023-02-28T07:13:55;12.82;;;8.27;;
1603;SDS011;795;49.296;11.348;2023-02-28T07:16:23;13.40;;;9.35;;
1603;SDS011;795;49.296;11.348;2023-02-28T07:18:52;10.35;;;7.90;;
1603;SDS011;795;49.296;11.348;2023-02-28T07:21:20;9.13;;;7.70;;
1603;SDS011;795;49.296;11.348;2023-02-28T07:23:47;13.45;;;7.70;;
1603;SDS011;795;49.296;11.348;2023-02-28T07:26:15;11.55;;;7.32;;
1603;SDS011;795;49.296;11.348;2023-02-28T07:28:46;10.02;;;7.30;;
1603;SDS011;795;49.296;11.348;2023-02-28T07:31:15;12.95;;;8.40;;
1603;SDS011;795;49.296;11.348;2023-02-28T07:33:43;11.90;;;7.38;;
1603;SDS011;795;49.296;11.348;2023-02-28T07:36:14;12.48;;;7.07;;
1603;SDS011;795;49.296;11.348;2023-02-28T07:38:45;10.40;;;8.10;;
1603;SDS011;795;49.296;11.348;2023-02-28T07:41:17;14.85;;;7.90;;
1603;SDS011;795;49.296;11.348;2023-02-28T07:43:47;7.00;;;6.30;;
1603;SDS011;795;49.296;11.348;2023-02-28T07:46:15;8.60;;;6.57;;
1603;SDS011;795;49.296;11.348;2023-02-28T07:48:43;11.63;;;7.85;;
1603;SDS011;795;49.296;11.348;2023-02-28T07:51:11;9.23;;;7.10;;
1603;SDS011;795;49.296;11.348;2023-02-28T07:53:38;8.00;;;7.18;;
1603;SDS011;795;49.296;11.348;2023-02-28T07:56:05;8.80;;;7.22;;
1603;SDS011;795;49.296;11.348;2023-02-28T07:58:33;13.02;;;7.43;;
1603;SDS011;795;49.296;11.348;2023-02-28T08:01:07;13.60;;;8.32;;
1603;SDS011;795;49.296;11.348;2023-02-28T08:03:37;11.50;;;7.50;;
1603;SDS011;795;49.296;11.348;2023-02-28T08:06:06;10.40;;;7.80;;
1603;SDS011;795;49.296;11.348;2023-02-28T08:08:45;8.05;;;7.15;;
1603;SDS011;795;49.296;11.348;2023-02-28T08:11:12;6.43;;;5.35;;
1603;SDS011;795;49.296;11.348;2023-02-28T08:13:42;8.30;;;5.78;;
1603;SDS011;795;49.296;11.348;2023-02-28T08:16:11;9.73;;;6.80;;
1603;SDS011;795;49.296;11.348;2023-02-28T08:18:48;11.60;;;7.72;;
1603;SDS011;795;49.296;11.348;2023-02-28T08:21:18;8.82;;;6.82;;
1603;SDS011;795;49.296;11.348;2023-02-28T08:23:47;10.32;;;7.78;;
1603;SDS011;795;49.296;11.348;2023-02-28T08:26:17;10.90;;;8.17;;
1603;SDS011;795;49.296;11.348;2023-02-28T08:28:45;11.45;;;8.15;;
1603;SDS011;795;49.296;11.348;2023-02-28T08:31:14;10.23;;;7.50;;
1603;SDS011;795;49.296;11.348;2023-02-28T08:33:43;10.30;;;6.95;;
1603;SDS011;795;49.296;11.348;2023-02-28T08:36:11;8.50;;;7.60;;
1603;SDS011;795;49.296;11.348;2023-02-28T08:38:38;14.80;;;8.88;;
1603;SDS011;795;49.296;11.348;2023-02-28T08:41:07;8.60;;;6.80;;
1603;SDS011;795;49.296;11.348;2023-02-28T08:43:39;12.80;;;7.20;;
1603;SDS011;795;49.296;11.348;2023-02-28T08:46:07;9.70;;;8.13;;
1603;SDS011;795;49.296;11.348;2023-02-28T08:48:40;9.33;;;7.77;;
1603;SDS011;795;49.296;11.348;2023-02-28T08:51:08;13.07;;;7.87;;
1603;SDS011;795;49.296;11.348;2023-02-28T08:53:53;10.80;;;7.97;;
1603;SDS011;795;49.296;11.348;2023-02-28T08:56:25;14.43;;;8.90;;
1603;SDS011;795;49.296;11.348;2023-02-28T08:58:55;9.43;;;7.00;;
1603;SDS011;795;49.296;11.348;2023-02-28T09:03:37;8.80;;;7.90;;
1603;SDS011;795;49.296;11.348;2023-02-28T09:06:05;11.50;;;6.90;;
1603;SDS011;795;49.296;11.348;2023-02-28T09:08:32;10.60;;;6.90;;
1603;SDS011;795;49.296;11.348;2023-02-28T09:10:59;12.03;;;7.63;;
1603;SDS011;795;49.296;11.348;2023-02-28T09:13:29;9.23;;;7.33;;
1603;SDS011;795;49.296;11.348;2023-02-28T09:15:58;9.30;;;7.63;;
1603;SDS011;795;49.296;11.348;2023-02-28T09:18:28;9.70;;;7.30;;
1603;SDS011;795;49.296;11.348;2023-02-28T09:20:56;10.80;;;7.67;;
1603;SDS011;795;49.296;11.348;2023-02-28T09:23:23;8.50;;;7.03;;
1603;SDS011;795;49.296;11.348;2023-02-28T09:25:52;8.43;;;7.07;;
1603;SDS011;795;49.296;11.348;2023-02-28T09:28:21;12.77;;;7.23;;
1603;SDS011;795;49.296;11.348;2023-02-28T09:30:50;7.93;;;6.90;;
1603;SDS011;795;49.296;11.348;2023-02-28T09:33:21;9.60;;;6.90;;
1603;SDS011;795;49.296;11.348;2023-02-28T09:35:48;8.03;;;6.30;;
1603;SDS011;795;49.296;11.348;2023-02-28T09:38:23;12.20;;;7.20;;
1603;SDS011;795;49.296;11.348;2023-02-28T09:40:51;10.20;;;6.90;;
1603;SDS011;795;49.296;11.348;2023-02-28T09:43:28;13.37;;;7.00;;
1603;SDS011;795;49.296;11.348;2023-02-28T09:46:08;13.63;;;7.20;;
1603;SDS011;795;49.296;11.348;2023-02-28T09:48:58;9.40;;;7.53;;
1603;SDS011;795;49.296;11.348;2023-02-28T09:51:40;10.20;;;7.60;;
1603;SDS011;795;49.296;11.348;2023-02-28T09:54:35;8.20;;;6.03;;
1603;SDS011;795;49.296;11.348;2023-02-28T10:05:55;6.80;;;6.13;;
1603;SDS011;795;49.296;11.348;2023-02-28T10:08:45;10.20;;;7.10;;
1603;SDS011;795;49.296;11.348;2023-02-28T10:11:27;7.47;;;6.50;;
1603;SDS011;795;49.296;11.348;2023-02-28T10:14:06;9.97;;;6.70;;
1603;SDS011;795;49.296;11.348;2023-02-28T10:16:48;8.97;;;6.97;;
1603;SDS011;795;49.296;11.348;2023-02-28T10:19:47;9.47;;;7.47;;
1603;SDS011;795;49.296;11.348;2023-02-28T10:23:02;9.97;;;7.10;;
1603;SDS011;795;49.296;11.348;2023-02-28T10:26:05;8.50;;;7.17;;
1603;SDS011;795;49.296;11.348;2023-02-28T10:28:42;10.53;;;7.57;;
1603;SDS011;795;49.296;11.348;2023-02-28T10:31:11;7.73;;;6.23;;
1603;SDS011;795;49.296;11.348;2023-02-28T10:33:46;7.30;;;6.10;;
1603;SDS011;795;49.296;11.348;2023-02-28T10:36:16;9.03;;;6.80;;
1603;SDS011;795;49.296;11.348;2023-02-28T10:38:47;8.07;;;7.27;;
1603;SDS011;795;49.296;11.348;2023-02-28T10:41:28;10.97;;;8.30;;
1603;SDS011;795;49.296;11.348;2023-02-28T10:46:49;8.83;;;7.17;;
1603;SDS011;795;49.296;11.348;2023-02-28T10:49:20;8.33;;;7.47;;
1603;SDS011;795;49.296;11.348;2023-02-28T10:51:56;12.40;;;7.20;;
1603;SDS011;795;49.296;11.348;2023-02-28T10:57:18;8.60;;;7.70;;
1603;SDS011;795;49.296;11.348;2023-02-28T11:00:06;14.43;;;6.77;;
1603;SDS011;795;49.296;11.348;2023-02-28T11:02:51;7.83;;;6.00;;
1603;SDS011;795;49.296;11.348;2023-02-28T11:05:26;11.20;;;6.43;;
1603;SDS011;795;49.296;11.348;2023-02-28T11:10:44;9.33;;;6.43;;
1603;SDS011;795;49.296;11.348;2023-02-28T11:13:21;8.27;;;6.73;;
1603;SDS011;795;49.296;11.348;2023-02-28T11:15:59;7.77;;;6.80;;
1603;SDS011;795;49.296;11.348;2023-02-28T11:21:25;9.60;;;6.67;;
1603;SDS011;795;49.296;11.348;2023-02-28T11:24:27;10.13;;;7.17;;
1603;SDS011;795;49.296;11.348;2023-02-28T11:27:03;8.70;;;6.87;;
1603;SDS011;795;49.296;11.348;2023-02-28T11:29:31;11.57;;;6.83;;
1603;SDS011;795;49.296;11.348;2023-02-28T11:35:02;9.50;;;7.40;;
1603;SDS011;795;49.296;11.348;2023-02-28T11:37:49;10.93;;;7.33;;
1603;SDS011;795;49.296;11.348;2023-02-28T11:40:51;8.90;;;7.23;;
1603;SDS011;795;49.296;11.348;2023-02-28T11:43:25;12.23;;;8.70;;
1603;SDS011;795;49.296;11.348;2023-02-28T11:46:41;13.50;;;7.77;;
1603;SDS011;795;49.296;11.348;2023-02-28T11:49:40;11.80;;;8.03;;
1603;SDS011;795;49.296;11.348;2023-02-28T11:52:57;10.20;;;7.83;;
1603;SDS011;795;49.296;11.348;2023-02-28T11:55:47;11.77;;;7.73;;
1603;SDS011;795;49.296;11.348;2023-02-28T11:58:38;8.80;;;7.00;;
1603;SDS011;795;49.296;11.348;2023-02-28T12:13:58;9.87;;;7.30;;
1603;SDS011;795;49.296;11.348;2023-02-28T12:16:50;12.00;;;8.27;;
1603;SDS011;795;49.296;11.348;2023-02-28T12:19:48;9.57;;;7.43;;
1603;SDS011;795;49.296;11.348;2023-02-28T12:26:07;10.20;;;7.53;;
1603;SDS011;795;49.296;11.348;2023-02-28T12:34:55;9.70;;;7.93;;
1603;SDS011;795;49.296;11.348;2023-02-28T12:37:40;11.13;;;9.13;;
1603;SDS011;795;49.296;11.348;2023-02-28T12:40:22;11.43;;;9.13;;
1603;SDS011;795;49.296;11.348;2023-02-28T12:43:02;10.40;;;7.67;;
1603;SDS011;795;49.296;11.348;2023-02-28T12:48:55;11.87;;;8.90;;
1603;SDS011;795;49.296;11.348;2023-02-28T12:51:47;11.53;;;8.47;;
1603;SDS011;795;49.296;11.348;2023-02-28T12:54:35;8.87;;;7.07;;
1603;SDS011;795;49.296;11.348;2023-02-28T12:57:31;8.47;;;7.60;;
1603;SDS011;795;49.296;11.348;2023-02-28T13:00:17;11.50;;;8.43;;
1603;SDS011;795;49.296;11.348;2023-02-28T13:03:01;10.50;;;8.47;;
1603;SDS011;795;49.296;11.348;2023-02-28T13:06:18;10.60;;;8.30;;
1603;SDS011;795;49.296;11.348;2023-02-28T13:09:15;8.80;;;7.90;;
1603;SDS011;795;49.296;11.348;2023-02-28T13:11:46;8.90;;;7.50;;
1603;SDS011;795;49.296;11.348;2023-02-28T13:14:24;11.13;;;8.53;;
1603;SDS011;795;49.296;11.348;2023-02-28T13:19:44;10.30;;;9.33;;
1603;SDS011;795;49.296;11.348;2023-02-28T13:24:53;13.30;;;8.03;;
1603;SDS011;795;49.296;11.348;2023-02-28T13:33:27;11.23;;;8.20;;
1603;SDS011;795;49.296;11.348;2023-02-28T13:38:57;13.13;;;9.07;;
1603;SDS011;795;49.296;11.348;2023-02-28T13:41:52;9.20;;;8.30;;
1603;SDS011;795;49.296;11.348;2023-02-28T13:44:22;9.63;;;8.67;;
1603;SDS011;795;49.296;11.348;2023-02-28T13:51:49;8.30;;;7.43;;
1603;SDS011;795;49.296;11.348;2023-02-28T14:06:29;9.77;;;8.33;;
1603;SDS011;795;49.296;11.348;2023-02-28T14:09:01;10.07;;;7.87;;
1603;SDS011;795;49.296;11.348;2023-02-28T14:11:47;9.57;;;8.57;;
1603;SDS011;795;49.296;11.348;2023-02-28T14:17:04;10.80;;;9.13;;
1603;SDS011;795;49.296;11.348;2023-02-28T14:19:41;10.87;;;8.70;;
1603;SDS011;795;49.296;11.348;2023-02-28T14:25:32;10.90;;;8.97;;
1603;SDS011;795;49.296;11.348;2023-02-28T14:31:13;10.07;;;8.50;;
1603;SDS011;795;49.296;11.348;2023-02-28T14:34:14;8.60;;;7.80;;
1603;SDS011;795;49.296;11.348;2023-02-28T14:37:20;11.97;;;8.80;;
1603;SDS011;795;49.296;11.348;2023-02-28T14:40:03;10.03;;;8.30;;
1603;SDS011;795;49.296;11.348;2023-02-28T14:42:46;9.27;;;7.43;;
1603;SDS011;795;49.296;11.348;2023-02-28T14:45:26;9.40;;;8.00;;
1603;SDS011;795;49.296;11.348;2023-02-28T14:47:59;14.13;;;10.80;;
1603;SDS011;795;49.296;11.348;2023-02-28T14:50:31;10.30;;;8.60;;
1603;SDS011;795;49.296;11.348;2023-02-28T14:53:03;10.17;;;8.20;;
1603;SDS011;795;49.296;11.348;2023-02-28T14:55:46;11.10;;;8.70;;
1603;SDS011;795;49.296;11.348;2023-02-28T14:58:26;14.40;;;8.47;;
1603;SDS011;795;49.296;11.348;2023-02-28T15:01:01;9.80;;;7.90;;
1603;SDS011;795;49.296;11.348;2023-02-28T15:03:31;9.67;;;8.67;;
1603;SDS011;795;49.296;11.348;2023-02-28T15:06:12;13.60;;;9.90;;
1603;SDS011;795;49.296;11.348;2023-02-28T15:08:44;12.27;;;8.30;;
1603;SDS011;795;49.296;11.348;2023-02-28T15:11:16;8.00;;;6.87;;
1603;SDS011;795;49.296;11.348;2023-02-28T15:13:48;10.40;;;8.00;;
1603;SDS011;795;49.296;11.348;2023-02-28T15:21:51;10.70;;;9.20;;
1603;SDS011;795;49.296;11.348;2023-02-28T15:24:39;9.30;;;8.30;;
1603;SDS011;795;49.296;11.348;2023-02-28T15:27:16;9.50;;;8.60;;
1603;SDS011;795;49.296;11.348;2023-02-28T15:29:57;9.87;;;7.40;;
1603;SDS011;795;49.296;11.348;2023-02-28T15:32:34;10.23;;;7.00;;
1603;SDS011;795;49.296;11.348;2023-02-28T15:37:57;9.30;;;8.40;;
1603;SDS011;795;49.296;11.348;2023-02-28T15:40:52;8.70;;;7.40;;
1603;SDS011;795;49.296;11.348;2023-02-28T15:43:26;13.33;;;9.40;;
1603;SDS011;795;49.296;11.348;2023-02-28T15:49:12;12.80;;;8.43;;
1603;SDS011;795;49.296;11.348;2023-02-28T15:51:45;11.37;;;8.50;;
1603;SDS011;795;49.296;11.348;2023-02-28T15:54:19;11.30;;;9.73;;
1603;SDS011;795;49.296;11.348;2023-02-28T15:57:03;12.10;;;8.90;;
1603;SDS011;795;49.296;11.348;2023-02-28T15:59:37;8.23;;;7.43;;
1603;SDS011;795;49.296;11.348;2023-02-28T16:04:57;11.17;;;8.07;;
1603;SDS011;795;49.296;11.348;2023-02-28T16:07:37;12.43;;;8.60;;
1603;SDS011;795;49.296;11.348;2023-02-28T16:10:10;9.87;;;8.87;;
1603;SDS011;795;49.296;11.348;2023-02-28T16:12:43;13.10;;;8.53;;
1603;SDS011;795;49.296;11.348;2023-02-28T16:15:18;12.00;;;8.67;;
1603;SDS011;795;49.296;11.348;2023-02-28T16:17:49;10.30;;;8.33;;
1603;SDS011;795;49.296;11.348;2023-02-28T16:20:17;11.53;;;8.27;;
1603;SDS011;795;49.296;11.348;2023-02-28T16:22:56;13.60;;;8.57;;
1603;SDS011;795;49.296;11.348;2023-02-28T16:25:29;12.30;;;8.90;;
1603;SDS011;795;49.296;11.348;2023-02-28T16:28:06;11.20;;;7.87;;
1603;SDS011;795;49.296;11.348;2023-02-28T16:31:05;13.03;;;9.33;;
1603;SDS011;795;49.296;11.348;2023-02-28T16:33:33;10.83;;;7.37;;
1603;SDS011;795;49.296;11.348;2023-02-28T16:36:01;10.07;;;7.07;;
1603;SDS011;795;49.296;11.348;2023-02-28T16:38:28;9.90;;;7.70;;
1603;SDS011;795;49.296;11.348;2023-02-28T16:40:55;10.77;;;8.07;;
1603;SDS011;795;49.296;11.348;2023-02-28T16:43:26;10.63;;;8.02;;
1603;SDS011;795;49.296;11.348;2023-02-28T16:45:55;11.98;;;9.25;;
1603;SDS011;795;49.296;11.348;2023-02-28T16:48:26;17.23;;;9.65;;
1603;SDS011;795;49.296;11.348;2023-02-28T16:50:53;11.75;;;7.90;;
1603;SDS011;795;49.296;11.348;2023-02-28T16:53:20;10.07;;;8.65;;
1603;SDS011;795;49.296;11.348;2023-02-28T16:55:47;13.40;;;9.30;;
1603;SDS011;795;49.296;11.348;2023-02-28T16:58:16;12.40;;;8.77;;
1603;SDS011;795;49.296;11.348;2023-02-28T17:00:45;14.07;;;9.02;;
1603;SDS011;795;49.296;11.348;2023-02-28T17:03:18;13.25;;;7.85;;
1603;SDS011;795;49.296;11.348;2023-02-28T17:05:58;13.40;;;8.80;;
1603;SDS011;795;49.296;11.348;2023-02-28T17:08:25;13.60;;;9.20;;
1603;SDS011;795;49.296;11.348;2023-02-28T17:10:54;12.90;;;8.52;;
1603;SDS011;795;49.296;11.348;2023-02-28T17:13:22;16.02;;;9.70;;
1603;SDS011;795;49.296;11.348;2023-02-28T17:15:49;13.30;;;8.73;;
1603;SDS011;795;49.296;11.348;2023-02-28T17:18:17;9.55;;;7.68;;
1603;SDS011;795;49.296;11.348;2023-02-28T17:20:48;9.40;;;7.75;;
1603;SDS011;795;49.296;11.348;2023-02-28T17:23:15;10.27;;;7.90;;
1603;SDS011;795;49.296;11.348;2023-02-28T17:25:42;14.63;;;8.23;;
1603;SDS011;795;49.296;11.348;2023-02-28T17:28:22;11.48;;;8.55;;
1603;SDS011;795;49.296;11.348;2023-02-28T17:30:50;14.35;;;9.02;;
1603;SDS011;795;49.296;11.348;2023-02-28T17:33:17;11.57;;;8.77;;
1603;SDS011;795;49.296;11.348;2023-02-28T17:35:44;15.45;;;10.30;;
1603;SDS011;795;49.296;11.348;2023-02-28T17:38:18;10.93;;;9.05;;
1603;SDS011;795;49.296;11.348;2023-02-28T17:40:48;17.15;;;9.60;;
1603;SDS011;795;49.296;11.348;2023-02-28T17:43:15;13.00;;;9.05;;
1603;SDS011;795;49.296;11.348;2023-02-28T17:45:42;17.67;;;8.80;;
1603;SDS011;795;49.296;11.348;2023-02-28T17:48:10;13.77;;;9.32;;
1603;SDS011;795;49.296;11.348;2023-02-28T17:50:38;15.52;;;8.50;;
1603;SDS011;795;49.296;11.348;2023-02-28T17:53:05;12.63;;;8.85;;
1603;SDS011;795;49.296;11.348;2023-02-28T17:55:32;17.73;;;9.82;;
1603;SDS011;795;49.296;11.348;2023-02-28T17:58:00;16.33;;;8.38;;
1603;SDS011;795;49.296;11.348;2023-02-28T18:00:29;11.57;;;8.20;;
1603;SDS011;795;49.296;11.348;2023-02-28T18:02:59;11.48;;;8.40;;
1603;SDS011;795;49.296;11.348;2023-02-28T18:05:26;16.67;;;8.77;;
1603;SDS011;795;49.296;11.348;2023-02-28T18:07:53;15.13;;;9.32;;
1603;SDS011;795;49.296;11.348;2023-02-28T18:10:21;15.70;;;10.15;;
1603;SDS011;795;49.296;11.348;2023-02-28T18:12:49;16.75;;;9.98;;
1603;SDS011;795;49.296;11.348;2023-02-28T18:15:19;16.02;;;9.98;;
1603;SDS011;795;49.296;11.348;2023-02-28T18:17:48;16.13;;;9.05;;